sensor_id;sensor_type;location;lat;lon;timestamp;temperature;humidity
75091;DHT22;63674;48.048;8.306;2023-07-29T00:01:42;14.20;99.90
75091;DHT22;63674;48.048;8.306;2023-07-29T00:04:13;14.20;99.90
75091;DHT22;63674;48.048;8.306;2023-07-29T00:06:42;14.20;99.90
75091;DHT22;63674;48.048;8.306;2023-07-29T00:09:10;14.20;99.90
75091;DHT22;63674;48.048;8.306;2023-07-29T00:11:39;14.10;99.90
75091;DHT22;63674;48.048;8.306;2023-07-29T00:14:08;14.10;99.90
75091;DHT22;63674;48.048;8.306;2023-07-29T00:16:36;14.10;99.90
75091;DHT22;63674;48.048;8.306;2023-07-29T00:19:06;14.00;99.90
75091;DHT22;63674;48.048;8.306;2023-07-29T00:21:36;14.00;99.90
75091;DHT22;63674;48.048;8.306;2023-07-29T00:24:05;14.10;99.90
75091;DHT22;63674;48.048;8.306;2023-07-29T00:26:34;14.00;99.90
75091;DHT22;63674;48.048;8.306;2023-07-29T00:29:03;14.00;99.90
75091;DHT22;63674;48.048;8.306;2023-07-29T00:31:32;14.00;99.90
75091;DHT22;63674;48.048;8.306;2023-07-29T00:34:00;14.00;99.90
75091;DHT22;63674;48.048;8.306;2023-07-29T00:36:29;14.10;99.90
75091;DHT22;63674;48.048;8.306;2023-07-29T00:38:59;14.00;99.90
75091;DHT22;63674;48.048;8.306;2023-07-29T00:41:28;14.10;99.90
75091;DHT22;63674;48.048;8.306;2023-07-29T00:43:56;14.10;99.90
75091;DHT22;63674;48.048;8.306;2023-07-29T00:46:25;14.20;99.90
75091;DHT22;63674;48.048;8.306;2023-07-29T00:48:55;14.20;99.90
75091;DHT22;63674;48.048;8.306;2023-07-29T00:51:24;14.20;99.90
75091;DHT22;63674;48.048;8.306;2023-07-29T00:53:52;14.20;99.90
75091;DHT22;63674;48.048;8.306;2023-07-29T00:56:22;14.10;99.90
75091;DHT22;63674;48.048;8.306;2023-07-29T00:58:51;14.10;99.90
75091;DHT22;63674;48.048;8.306;2023-07-29T01:01:25;14.10;99.90
75091;DHT22;63674;48.048;8.306;2023-07-29T01:03:54;14.10;99.90
75091;DHT22;63674;48.048;8.306;2023-07-29T01:06:29;14.10;99.90
75091;DHT22;63674;48.048;8.306;2023-07-29T01:09:03;14.10;99.90
75091;DHT22;63674;48.048;8.306;2023-07-29T01:11:41;14.10;99.90
75091;DHT22;63674;48.048;8.306;2023-07-29T01:14:19;14.00;99.90
75091;DHT22;63674;48.048;8.306;2023-07-29T01:16:53;13.90;99.90
75091;DHT22;63674;48.048;8.306;2023-07-29T01:19:43;13.80;99.90
75091;DHT22;63674;48.048;8.306;2023-07-29T01:22:17;13.80;99.90
75091;DHT22;63674;48.048;8.306;2023-07-29T01:24:49;13.80;99.90
75091;DHT22;63674;48.048;8.306;2023-07-29T01:27:17;13.80;99.90
75091;DHT22;63674;48.048;8.306;2023-07-29T01:29:46;13.70;99.90
75091;DHT22;63674;48.048;8.306;2023-07-29T01:32:20;13.60;99.90
75091;DHT22;63674;48.048;8.306;2023-07-29T01:34:58;13.60;99.90
75091;DHT22;63674;48.048;8.306;2023-07-29T01:37:33;13.50;99.90
75091;DHT22;63674;48.048;8.306;2023-07-29T01:40:05;13.40;99.90
75091;DHT22;63674;48.048;8.306;2023-07-29T01:42:36;13.40;99.90
75091;DHT22;63674;48.048;8.306;2023-07-29T01:45:05;13.40;99.90
75091;DHT22;63674;48.048;8.306;2023-07-29T01:47:34;13.30;99.90
75091;DHT22;63674;48.048;8.306;2023-07-29T01:50:04;13.30;99.90
75091;DHT22;63674;48.048;8.306;2023-07-29T01:52:34;13.40;99.90
75091;DHT22;63674;48.048;8.306;2023-07-29T01:55:05;13.30;99.90
75091;DHT22;63674;48.048;8.306;2023-07-29T01:57:34;13.30;99.90
75091;DHT22;63674;48.048;8.306;2023-07-29T02:00:03;13.30;99.90
75091;DHT22;63674;48.048;8.306;2023-07-29T02:02:32;13.30;99.90
75091;DHT22;63674;48.048;8.306;2023-07-29T02:05:01;13.30;99.90
75091;DHT22;63674;48.048;8.306;2023-07-29T02:07:29;13.30;99.90
75091;DHT22;63674;48.048;8.306;2023-07-29T02:09:58;13.20;99.90
75091;DHT22;63674;48.048;8.306;2023-07-29T02:12:28;13.30;99.90
75091;DHT22;63674;48.048;8.306;2023-07-29T02:14:57;13.30;99.90
75091;DHT22;63674;48.048;8.306;2023-07-29T02:17:25;13.30;99.90
75091;DHT22;63674;48.048;8.306;2023-07-29T02:19:54;13.30;99.90
75091;DHT22;63674;48.048;8.306;2023-07-29T02:22:22;13.40;99.90
75091;DHT22;63674;48.048;8.306;2023-07-29T02:24:51;13.50;99.90
75091;DHT22;63674;48.048;8.306;2023-07-29T02:27:20;13.50;99.90
75091;DHT22;63674;48.048;8.306;2023-07-29T02:29:50;13.60;99.90
75091;DHT22;63674;48.048;8.306;2023-07-29T02:32:19;13.50;99.90
75091;DHT22;63674;48.048;8.306;2023-07-29T02:34:48;13.60;99.90
75091;DHT22;63674;48.048;8.306;2023-07-29T02:37:17;13.70;99.90
75091;DHT22;63674;48.048;8.306;2023-07-29T02:39:46;13.70;99.90
75091;DHT22;63674;48.048;8.306;2023-07-29T02:42:14;13.80;99.90
75091;DHT22;63674;48.048;8.306;2023-07-29T02:44:43;13.80;99.90
75091;DHT22;63674;48.048;8.306;2023-07-29T02:47:13;13.80;99.90
75091;DHT22;63674;48.048;8.306;2023-07-29T02:49:42;13.80;99.90
75091;DHT22;63674;48.048;8.306;2023-07-29T02:52:11;13.80;99.90
75091;DHT22;63674;48.048;8.306;2023-07-29T02:54:39;13.80;99.90
75091;DHT22;63674;48.048;8.306;2023-07-29T02:57:08;13.80;99.90
75091;DHT22;63674;48.048;8.306;2023-07-29T02:59:36;13.80;99.90
75091;DHT22;63674;48.048;8.306;2023-07-29T03:02:05;13.80;99.90
75091;DHT22;63674;48.048;8.306;2023-07-29T03:04:35;13.80;99.90
75091;DHT22;63674;48.048;8.306;2023-07-29T03:07:03;13.80;99.90
75091;DHT22;63674;48.048;8.306;2023-07-29T03:09:32;13.90;99.90
75091;DHT22;63674;48.048;8.306;2023-07-29T03:12:01;13.90;99.90
75091;DHT22;63674;48.048;8.306;2023-07-29T03:14:29;13.90;99.90
75091;DHT22;63674;48.048;8.306;2023-07-29T03:16:58;13.80;99.90
75091;DHT22;63674;48.048;8.306;2023-07-29T03:19:31;13.90;99.90
75091;DHT22;63674;48.048;8.306;2023-07-29T03:22:01;13.80;99.90
75091;DHT22;63674;48.048;8.306;2023-07-29T03:24:29;13.90;99.90
75091;DHT22;63674;48.048;8.306;2023-07-29T03:26:58;13.90;99.90
75091;DHT22;63674;48.048;8.306;2023-07-29T03:29:27;13.90;99.90
75091;DHT22;63674;48.048;8.306;2023-07-29T03:31:55;13.80;99.90
75091;DHT22;63674;48.048;8.306;2023-07-29T03:34:24;13.80;99.90
75091;DHT22;63674;48.048;8.306;2023-07-29T03:36:53;13.80;99.90
75091;DHT22;63674;48.048;8.306;2023-07-29T03:39:23;13.80;99.90
75091;DHT22;63674;48.048;8.306;2023-07-29T03:41:51;13.80;99.90
75091;DHT22;63674;48.048;8.306;2023-07-29T03:44:20;13.80;99.90
75091;DHT22;63674;48.048;8.306;2023-07-29T03:46:49;13.70;99.90
75091;DHT22;63674;48.048;8.306;2023-07-29T03:49:17;13.70;99.90
75091;DHT22;63674;48.048;8.306;2023-07-29T03:51:46;13.70;99.90
75091;DHT22;63674;48.048;8.306;2023-07-29T03:54:14;13.70;99.90
75091;DHT22;63674;48.048;8.306;2023-07-29T03:56:44;13.60;99.90
75091;DHT22;63674;48.048;8.306;2023-07-29T03:59:13;13.60;99.90
75091;DHT22;63674;48.048;8.306;2023-07-29T04:01:42;13.60;99.90
75091;DHT22;63674;48.048;8.306;2023-07-29T04:04:10;13.60;99.90
75091;DHT22;63674;48.048;8.306;2023-07-29T04:06:39;13.50;99.90
75091;DHT22;63674;48.048;8.306;2023-07-29T04:09:08;13.60;99.90
75091;DHT22;63674;48.048;8.306;2023-07-29T04:11:36;13.60;99.90
75091;DHT22;63674;48.048;8.306;2023-07-29T04:14:06;13.60;99.90
75091;DHT22;63674;48.048;8.306;2023-07-29T04:16:35;13.50;99.90
75091;DHT22;63674;48.048;8.306;2023-07-29T04:19:04;13.50;99.90
75091;DHT22;63674;48.048;8.306;2023-07-29T04:21:33;13.50;99.90
75091;DHT22;63674;48.048;8.306;2023-07-29T04:24:02;13.50;99.90
75091;DHT22;63674;48.048;8.306;2023-07-29T04:26:31;13.50;99.90
75091;DHT22;63674;48.048;8.306;2023-07-29T04:28:59;13.50;99.90
75091;DHT22;63674;48.048;8.306;2023-07-29T04:31:29;13.40;99.90
75091;DHT22;63674;48.048;8.306;2023-07-29T04:33:58;13.40;99.90
75091;DHT22;63674;48.048;8.306;2023-07-29T04:36:26;13.30;99.90
75091;DHT22;63674;48.048;8.306;2023-07-29T04:38:55;13.30;99.90
75091;DHT22;63674;48.048;8.306;2023-07-29T04:41:24;13.30;99.90
75091;DHT22;63674;48.048;8.306;2023-07-29T04:43:52;13.30;99.90
75091;DHT22;63674;48.048;8.306;2023-07-29T04:46:21;13.40;99.90
75091;DHT22;63674;48.048;8.306;2023-07-29T04:48:51;13.30;99.90
75091;DHT22;63674;48.048;8.306;2023-07-29T04:51:21;13.40;99.90
75091;DHT22;63674;48.048;8.306;2023-07-29T04:53:50;13.50;99.90
75091;DHT22;63674;48.048;8.306;2023-07-29T04:56:18;13.50;99.90
75091;DHT22;63674;48.048;8.306;2023-07-29T04:58:47;13.50;99.90
75091;DHT22;63674;48.048;8.306;2023-07-29T05:01:15;13.60;99.90
75091;DHT22;63674;48.048;8.306;2023-07-29T05:03:44;13.60;99.90
75091;DHT22;63674;48.048;8.306;2023-07-29T05:06:14;13.70;99.90
75091;DHT22;63674;48.048;8.306;2023-07-29T05:08:43;13.70;99.90
75091;DHT22;63674;48.048;8.306;2023-07-29T05:11:11;13.80;99.90
75091;DHT22;63674;48.048;8.306;2023-07-29T05:13:40;13.90;99.90
75091;DHT22;63674;48.048;8.306;2023-07-29T05:16:11;13.80;99.90
75091;DHT22;63674;48.048;8.306;2023-07-29T05:18:39;13.90;99.90
75091;DHT22;63674;48.048;8.306;2023-07-29T05:21:08;13.90;99.90
75091;DHT22;63674;48.048;8.306;2023-07-29T05:23:39;14.00;99.90
75091;DHT22;63674;48.048;8.306;2023-07-29T05:26:08;14.00;99.90
75091;DHT22;63674;48.048;8.306;2023-07-29T05:28:37;14.00;99.90
75091;DHT22;63674;48.048;8.306;2023-07-29T05:31:05;14.00;99.90
75091;DHT22;63674;48.048;8.306;2023-07-29T05:33:34;14.00;99.90
75091;DHT22;63674;48.048;8.306;2023-07-29T05:36:04;14.00;99.90
75091;DHT22;63674;48.048;8.306;2023-07-29T05:38:33;14.00;99.90
75091;DHT22;63674;48.048;8.306;2023-07-29T05:41:03;14.10;99.90
75091;DHT22;63674;48.048;8.306;2023-07-29T05:43:32;14.20;99.90
75091;DHT22;63674;48.048;8.306;2023-07-29T05:46:00;14.20;99.90
75091;DHT22;63674;48.048;8.306;2023-07-29T05:48:29;14.30;99.90
75091;DHT22;63674;48.048;8.306;2023-07-29T05:50:58;14.30;99.90
75091;DHT22;63674;48.048;8.306;2023-07-29T05:53:27;14.40;99.90
75091;DHT22;63674;48.048;8.306;2023-07-29T05:55:56;14.40;99.90
75091;DHT22;63674;48.048;8.306;2023-07-29T05:58:26;14.50;99.90
75091;DHT22;63674;48.048;8.306;2023-07-29T06:00:55;14.50;99.90
75091;DHT22;63674;48.048;8.306;2023-07-29T06:03:23;14.60;99.90
75091;DHT22;63674;48.048;8.306;2023-07-29T06:05:53;14.60;99.90
75091;DHT22;63674;48.048;8.306;2023-07-29T06:08:22;14.70;99.90
75091;DHT22;63674;48.048;8.306;2023-07-29T06:10:50;14.60;99.90
75091;DHT22;63674;48.048;8.306;2023-07-29T06:13:19;14.70;99.90
75091;DHT22;63674;48.048;8.306;2023-07-29T06:15:49;14.90;99.90
75091;DHT22;63674;48.048;8.306;2023-07-29T06:18:18;15.00;99.90
75091;DHT22;63674;48.048;8.306;2023-07-29T06:20:46;15.20;99.90
75091;DHT22;63674;48.048;8.306;2023-07-29T06:23:18;15.30;99.90
75091;DHT22;63674;48.048;8.306;2023-07-29T06:25:46;15.40;99.90
75091;DHT22;63674;48.048;8.306;2023-07-29T06:28:15;15.50;99.90
75091;DHT22;63674;48.048;8.306;2023-07-29T06:30:44;15.60;99.90
75091;DHT22;63674;48.048;8.306;2023-07-29T06:33:14;15.90;99.90
75091;DHT22;63674;48.048;8.306;2023-07-29T06:35:43;16.00;99.90
75091;DHT22;63674;48.048;8.306;2023-07-29T06:38:11;16.00;99.90
75091;DHT22;63674;48.048;8.306;2023-07-29T06:40:40;16.20;99.90
75091;DHT22;63674;48.048;8.306;2023-07-29T06:43:08;16.40;99.90
75091;DHT22;63674;48.048;8.306;2023-07-29T06:45:37;16.40;99.90
75091;DHT22;63674;48.048;8.306;2023-07-29T06:48:06;16.40;99.90
75091;DHT22;63674;48.048;8.306;2023-07-29T06:50:36;16.50;99.90
75091;DHT22;63674;48.048;8.306;2023-07-29T06:53:05;16.60;99.90
75091;DHT22;63674;48.048;8.306;2023-07-29T06:55:34;16.80;99.90
75091;DHT22;63674;48.048;8.306;2023-07-29T06:58:02;16.80;99.90
75091;DHT22;63674;48.048;8.306;2023-07-29T07:00:31;16.90;99.90
75091;DHT22;63674;48.048;8.306;2023-07-29T07:03:00;16.90;99.90
75091;DHT22;63674;48.048;8.306;2023-07-29T07:05:28;16.80;99.90
75091;DHT22;63674;48.048;8.306;2023-07-29T07:07:58;16.80;99.90
75091;DHT22;63674;48.048;8.306;2023-07-29T07:10:27;16.90;99.90
75091;DHT22;63674;48.048;8.306;2023-07-29T07:12:55;17.00;99.90
75091;DHT22;63674;48.048;8.306;2023-07-29T07:15:24;17.00;99.90
75091;DHT22;63674;48.048;8.306;2023-07-29T07:17:53;17.00;99.90
75091;DHT22;63674;48.048;8.306;2023-07-29T07:20:21;16.90;99.90
75091;DHT22;63674;48.048;8.306;2023-07-29T07:22:50;17.00;99.90
75091;DHT22;63674;48.048;8.306;2023-07-29T07:25:20;17.00;99.90
75091;DHT22;63674;48.048;8.306;2023-07-29T07:27:48;17.00;99.90
75091;DHT22;63674;48.048;8.306;2023-07-29T07:30:17;17.00;99.90
75091;DHT22;63674;48.048;8.306;2023-07-29T07:32:46;17.20;99.90
75091;DHT22;63674;48.048;8.306;2023-07-29T07:35:14;17.30;99.90
75091;DHT22;63674;48.048;8.306;2023-07-29T07:37:43;17.50;99.90
75091;DHT22;63674;48.048;8.306;2023-07-29T07:40:12;17.50;99.90
75091;DHT22;63674;48.048;8.306;2023-07-29T07:42:41;17.50;99.90
75091;DHT22;63674;48.048;8.306;2023-07-29T07:45:10;17.40;99.90
75091;DHT22;63674;48.048;8.306;2023-07-29T07:47:39;17.40;99.90
75091;DHT22;63674;48.048;8.306;2023-07-29T07:50:08;17.40;99.90
75091;DHT22;63674;48.048;8.306;2023-07-29T07:52:36;17.20;99.90
75091;DHT22;63674;48.048;8.306;2023-07-29T07:55:05;17.20;99.90
75091;DHT22;63674;48.048;8.306;2023-07-29T07:57:35;17.20;99.90
75091;DHT22;63674;48.048;8.306;2023-07-29T08:00:06;17.20;99.90
75091;DHT22;63674;48.048;8.306;2023-07-29T08:02:36;17.30;99.90
75091;DHT22;63674;48.048;8.306;2023-07-29T08:05:06;17.50;99.90
75091;DHT22;63674;48.048;8.306;2023-07-29T08:07:35;17.50;99.90
75091;DHT22;63674;48.048;8.306;2023-07-29T08:10:04;17.60;99.90
75091;DHT22;63674;48.048;8.306;2023-07-29T08:12:34;17.80;99.90
75091;DHT22;63674;48.048;8.306;2023-07-29T08:15:04;17.90;99.90
75091;DHT22;63674;48.048;8.306;2023-07-29T08:17:34;18.00;99.90
75091;DHT22;63674;48.048;8.306;2023-07-29T08:20:03;18.10;99.90
75091;DHT22;63674;48.048;8.306;2023-07-29T08:22:32;18.10;99.90
75091;DHT22;63674;48.048;8.306;2023-07-29T08:25:00;18.20;99.90
75091;DHT22;63674;48.048;8.306;2023-07-29T08:27:29;18.30;99.90
75091;DHT22;63674;48.048;8.306;2023-07-29T08:29:57;18.40;99.90
75091;DHT22;63674;48.048;8.306;2023-07-29T08:32:27;18.50;99.90
75091;DHT22;63674;48.048;8.306;2023-07-29T08:34:57;18.60;99.90
75091;DHT22;63674;48.048;8.306;2023-07-29T08:37:25;18.60;99.90
75091;DHT22;63674;48.048;8.306;2023-07-29T08:39:54;18.70;99.90
75091;DHT22;63674;48.048;8.306;2023-07-29T08:42:27;19.00;99.90
75091;DHT22;63674;48.048;8.306;2023-07-29T08:44:59;19.40;99.90
75091;DHT22;63674;48.048;8.306;2023-07-29T08:47:34;19.80;99.90
75091;DHT22;63674;48.048;8.306;2023-07-29T08:50:03;20.10;99.90
75091;DHT22;63674;48.048;8.306;2023-07-29T08:52:33;20.10;99.90
75091;DHT22;63674;48.048;8.306;2023-07-29T08:55:03;20.10;99.90
75091;DHT22;63674;48.048;8.306;2023-07-29T08:57:32;19.90;99.90
75091;DHT22;63674;48.048;8.306;2023-07-29T09:00:02;19.80;99.90
75091;DHT22;63674;48.048;8.306;2023-07-29T09:02:31;19.60;99.90
75091;DHT22;63674;48.048;8.306;2023-07-29T09:05:01;19.70;99.90
75091;DHT22;63674;48.048;8.306;2023-07-29T09:07:30;19.70;99.90
75091;DHT22;63674;48.048;8.306;2023-07-29T09:09:59;19.60;99.90
75091;DHT22;63674;48.048;8.306;2023-07-29T09:12:27;19.40;99.90
75091;DHT22;63674;48.048;8.306;2023-07-29T09:14:56;19.50;99.90
75091;DHT22;63674;48.048;8.306;2023-07-29T09:17:24;19.50;99.90
75091;DHT22;63674;48.048;8.306;2023-07-29T09:19:53;19.70;99.90
75091;DHT22;63674;48.048;8.306;2023-07-29T09:22:23;19.60;99.90
75091;DHT22;63674;48.048;8.306;2023-07-29T09:24:53;19.60;99.90
75091;DHT22;63674;48.048;8.306;2023-07-29T09:27:25;19.60;99.90
75091;DHT22;63674;48.048;8.306;2023-07-29T09:29:54;19.60;99.90
75091;DHT22;63674;48.048;8.306;2023-07-29T09:32:24;19.50;99.90
75091;DHT22;63674;48.048;8.306;2023-07-29T09:34:53;19.60;99.90
75091;DHT22;63674;48.048;8.306;2023-07-29T09:37:24;19.60;99.90
75091;DHT22;63674;48.048;8.306;2023-07-29T09:39:52;20.10;99.90
75091;DHT22;63674;48.048;8.306;2023-07-29T09:42:22;20.40;99.90
75091;DHT22;63674;48.048;8.306;2023-07-29T09:44:51;20.30;99.90
75091;DHT22;63674;48.048;8.306;2023-07-29T09:47:21;20.60;99.90
75091;DHT22;63674;48.048;8.306;2023-07-29T09:49:51;20.70;99.90
75091;DHT22;63674;48.048;8.306;2023-07-29T09:52:21;20.80;99.90
75091;DHT22;63674;48.048;8.306;2023-07-29T09:54:51;20.60;99.90
75091;DHT22;63674;48.048;8.306;2023-07-29T09:57:21;20.50;99.90
75091;DHT22;63674;48.048;8.306;2023-07-29T09:59:56;20.40;99.90
75091;DHT22;63674;48.048;8.306;2023-07-29T10:02:25;20.50;99.90
75091;DHT22;63674;48.048;8.306;2023-07-29T10:04:56;20.60;99.90
75091;DHT22;63674;48.048;8.306;2023-07-29T10:07:27;21.00;99.90
75091;DHT22;63674;48.048;8.306;2023-07-29T10:09:56;21.40;99.90
75091;DHT22;63674;48.048;8.306;2023-07-29T10:12:26;21.80;99.90
75091;DHT22;63674;48.048;8.306;2023-07-29T10:14:59;21.90;99.90
75091;DHT22;63674;48.048;8.306;2023-07-29T10:17:28;22.20;99.90
75091;DHT22;63674;48.048;8.306;2023-07-29T10:19:58;22.10;99.90
75091;DHT22;63674;48.048;8.306;2023-07-29T10:22:33;22.10;99.90
75091;DHT22;63674;48.048;8.306;2023-07-29T10:25:07;22.10;99.90
75091;DHT22;63674;48.048;8.306;2023-07-29T10:27:43;21.70;99.90
75091;DHT22;63674;48.048;8.306;2023-07-29T10:30:12;21.40;99.90
75091;DHT22;63674;48.048;8.306;2023-07-29T10:32:42;21.30;99.90
75091;DHT22;63674;48.048;8.306;2023-07-29T10:35:13;21.20;99.90
75091;DHT22;63674;48.048;8.306;2023-07-29T10:37:43;21.30;99.90
75091;DHT22;63674;48.048;8.306;2023-07-29T10:40:13;21.50;99.90
75091;DHT22;63674;48.048;8.306;2023-07-29T10:43:00;21.70;99.90
75091;DHT22;63674;48.048;8.306;2023-07-29T10:45:37;21.90;99.90
75091;DHT22;63674;48.048;8.306;2023-07-29T10:48:10;22.20;99.90
75091;DHT22;63674;48.048;8.306;2023-07-29T10:50:39;22.30;99.90
75091;DHT22;63674;48.048;8.306;2023-07-29T10:53:09;22.40;99.90
75091;DHT22;63674;48.048;8.306;2023-07-29T10:55:37;22.30;99.90
75091;DHT22;63674;48.048;8.306;2023-07-29T10:58:12;22.30;99.90
75091;DHT22;63674;48.048;8.306;2023-07-29T11:00:43;22.50;99.90
75091;DHT22;63674;48.048;8.306;2023-07-29T11:03:12;22.60;99.90
75091;DHT22;63674;48.048;8.306;2023-07-29T11:05:47;22.40;99.90
75091;DHT22;63674;48.048;8.306;2023-07-29T11:08:20;22.40;99.90
75091;DHT22;63674;48.048;8.306;2023-07-29T11:11:06;22.60;99.90
75091;DHT22;63674;48.048;8.306;2023-07-29T11:13:36;22.60;99.90
75091;DHT22;63674;48.048;8.306;2023-07-29T11:16:06;22.50;99.90
75091;DHT22;63674;48.048;8.306;2023-07-29T11:18:35;22.60;99.90
75091;DHT22;63674;48.048;8.306;2023-07-29T11:21:04;22.60;99.90
75091;DHT22;63674;48.048;8.306;2023-07-29T11:23:36;22.70;99.90
75091;DHT22;63674;48.048;8.306;2023-07-29T11:26:05;22.30;99.90
75091;DHT22;63674;48.048;8.306;2023-07-29T11:28:38;22.40;99.90
75091;DHT22;63674;48.048;8.306;2023-07-29T11:31:08;22.30;99.90
75091;DHT22;63674;48.048;8.306;2023-07-29T11:33:38;22.40;99.90
75091;DHT22;63674;48.048;8.306;2023-07-29T11:36:17;22.60;99.90
75091;DHT22;63674;48.048;8.306;2023-07-29T11:38:48;22.70;99.90
75091;DHT22;63674;48.048;8.306;2023-07-29T11:41:20;22.60;99.90
75091;DHT22;63674;48.048;8.306;2023-07-29T11:43:49;22.40;99.90
75091;DHT22;63674;48.048;8.306;2023-07-29T11:46:21;22.20;99.90
75091;DHT22;63674;48.048;8.306;2023-07-29T11:48:51;22.40;99.90
75091;DHT22;63674;48.048;8.306;2023-07-29T11:51:22;22.70;99.90
75091;DHT22;63674;48.048;8.306;2023-07-29T11:53:52;22.60;99.90
75091;DHT22;63674;48.048;8.306;2023-07-29T11:56:21;22.70;99.90
75091;DHT22;63674;48.048;8.306;2023-07-29T11:58:50;22.70;99.90
75091;DHT22;63674;48.048;8.306;2023-07-29T12:01:19;22.80;99.90
75091;DHT22;63674;48.048;8.306;2023-07-29T12:03:49;23.10;99.90
75091;DHT22;63674;48.048;8.306;2023-07-29T12:06:18;23.20;99.90
75091;DHT22;63674;48.048;8.306;2023-07-29T12:08:47;22.90;99.90
75091;DHT22;63674;48.048;8.306;2023-07-29T12:11:19;22.90;99.90
75091;DHT22;63674;48.048;8.306;2023-07-29T12:13:48;23.00;99.90
75091;DHT22;63674;48.048;8.306;2023-07-29T12:16:17;22.90;99.90
75091;DHT22;63674;48.048;8.306;2023-07-29T12:18:46;22.90;99.90
75091;DHT22;63674;48.048;8.306;2023-07-29T12:21:15;22.90;99.90
75091;DHT22;63674;48.048;8.306;2023-07-29T12:23:45;22.90;99.90
75091;DHT22;63674;48.048;8.306;2023-07-29T12:26:14;23.00;99.90
75091;DHT22;63674;48.048;8.306;2023-07-29T12:28:47;23.00;99.90
75091;DHT22;63674;48.048;8.306;2023-07-29T12:31:16;23.00;99.90
75091;DHT22;63674;48.048;8.306;2023-07-29T12:33:44;22.60;99.90
75091;DHT22;63674;48.048;8.306;2023-07-29T12:36:13;22.50;99.90
75091;DHT22;63674;48.048;8.306;2023-07-29T12:38:43;22.50;99.90
75091;DHT22;63674;48.048;8.306;2023-07-29T12:41:11;22.10;99.90
75091;DHT22;63674;48.048;8.306;2023-07-29T12:43:40;22.00;99.90
75091;DHT22;63674;48.048;8.306;2023-07-29T12:46:10;21.80;99.90
75091;DHT22;63674;48.048;8.306;2023-07-29T12:48:38;21.70;99.90
75091;DHT22;63674;48.048;8.306;2023-07-29T12:51:07;21.60;99.90
75091;DHT22;63674;48.048;8.306;2023-07-29T12:53:36;21.50;99.90
75091;DHT22;63674;48.048;8.306;2023-07-29T12:56:06;21.50;99.90
75091;DHT22;63674;48.048;8.306;2023-07-29T12:58:34;21.60;99.90
75091;DHT22;63674;48.048;8.306;2023-07-29T13:01:03;21.60;99.90
75091;DHT22;63674;48.048;8.306;2023-07-29T13:03:34;21.50;99.90
75091;DHT22;63674;48.048;8.306;2023-07-29T13:06:03;21.50;99.90
75091;DHT22;63674;48.048;8.306;2023-07-29T13:08:31;21.60;99.90
75091;DHT22;63674;48.048;8.306;2023-07-29T13:11:00;21.60;99.90
75091;DHT22;63674;48.048;8.306;2023-07-29T13:13:29;21.60;99.90
75091;DHT22;63674;48.048;8.306;2023-07-29T13:15:58;21.60;99.90
75091;DHT22;63674;48.048;8.306;2023-07-29T13:18:28;21.60;99.90
75091;DHT22;63674;48.048;8.306;2023-07-29T13:20:59;21.70;99.90
75091;DHT22;63674;48.048;8.306;2023-07-29T13:23:28;21.80;99.90
75091;DHT22;63674;48.048;8.306;2023-07-29T13:25:58;21.90;99.90
75091;DHT22;63674;48.048;8.306;2023-07-29T13:28:26;21.80;99.90
75091;DHT22;63674;48.048;8.306;2023-07-29T13:30:55;21.70;99.90
75091;DHT22;63674;48.048;8.306;2023-07-29T13:33:24;21.70;99.90
75091;DHT22;63674;48.048;8.306;2023-07-29T13:35:52;21.70;99.90
75091;DHT22;63674;48.048;8.306;2023-07-29T13:38:22;21.60;99.90
75091;DHT22;63674;48.048;8.306;2023-07-29T13:40:51;21.60;99.90
75091;DHT22;63674;48.048;8.306;2023-07-29T13:43:19;21.70;99.90
75091;DHT22;63674;48.048;8.306;2023-07-29T13:45:48;21.70;99.90
75091;DHT22;63674;48.048;8.306;2023-07-29T13:48:18;21.90;99.90
75091;DHT22;63674;48.048;8.306;2023-07-29T13:50:47;22.00;99.90
75091;DHT22;63674;48.048;8.306;2023-07-29T13:53:15;21.90;99.90
75091;DHT22;63674;48.048;8.306;2023-07-29T13:55:45;22.10;99.90
75091;DHT22;63674;48.048;8.306;2023-07-29T13:58:14;22.30;99.90
75091;DHT22;63674;48.048;8.306;2023-07-29T14:00:42;22.40;99.90
75091;DHT22;63674;48.048;8.306;2023-07-29T14:03:11;22.80;99.90
75091;DHT22;63674;48.048;8.306;2023-07-29T14:05:40;22.70;99.90
75091;DHT22;63674;48.048;8.306;2023-07-29T14:08:10;22.40;99.90
75091;DHT22;63674;48.048;8.306;2023-07-29T14:10:41;22.30;99.90
75091;DHT22;63674;48.048;8.306;2023-07-29T14:13:11;21.90;99.90
75091;DHT22;63674;48.048;8.306;2023-07-29T14:15:40;21.70;99.90
75091;DHT22;63674;48.048;8.306;2023-07-29T14:18:09;21.50;99.90
75091;DHT22;63674;48.048;8.306;2023-07-29T14:20:37;21.50;99.90
75091;DHT22;63674;48.048;8.306;2023-07-29T14:23:06;21.70;99.90
75091;DHT22;63674;48.048;8.306;2023-07-29T14:25:34;21.90;99.90
75091;DHT22;63674;48.048;8.306;2023-07-29T14:28:04;21.90;99.90
75091;DHT22;63674;48.048;8.306;2023-07-29T14:30:34;21.80;99.90
75091;DHT22;63674;48.048;8.306;2023-07-29T14:33:04;21.50;99.90
75091;DHT22;63674;48.048;8.306;2023-07-29T14:35:33;21.40;99.90
75091;DHT22;63674;48.048;8.306;2023-07-29T14:38:02;21.30;99.90
75091;DHT22;63674;48.048;8.306;2023-07-29T14:40:31;21.10;99.90
75091;DHT22;63674;48.048;8.306;2023-07-29T14:42:59;21.00;99.90
75091;DHT22;63674;48.048;8.306;2023-07-29T14:45:28;20.80;99.90
75091;DHT22;63674;48.048;8.306;2023-07-29T14:47:58;20.60;99.90
75091;DHT22;63674;48.048;8.306;2023-07-29T14:50:27;20.30;99.90
75091;DHT22;63674;48.048;8.306;2023-07-29T14:52:56;20.00;99.90
75091;DHT22;63674;48.048;8.306;2023-07-29T14:55:24;19.60;99.90
75091;DHT22;63674;48.048;8.306;2023-07-29T14:57:53;19.30;99.90
75091;DHT22;63674;48.048;8.306;2023-07-29T15:00:22;19.00;99.90
75091;DHT22;63674;48.048;8.306;2023-07-29T15:02:50;18.70;99.90
75091;DHT22;63674;48.048;8.306;2023-07-29T15:05:20;18.50;99.90
75091;DHT22;63674;48.048;8.306;2023-07-29T15:07:49;18.50;99.90
75091;DHT22;63674;48.048;8.306;2023-07-29T15:10:18;18.50;99.90
75091;DHT22;63674;48.048;8.306;2023-07-29T15:12:48;18.40;99.90
75091;DHT22;63674;48.048;8.306;2023-07-29T15:15:16;18.50;99.90
75091;DHT22;63674;48.048;8.306;2023-07-29T15:17:45;18.50;99.90
75091;DHT22;63674;48.048;8.306;2023-07-29T15:20:14;18.60;99.90
75091;DHT22;63674;48.048;8.306;2023-07-29T15:22:44;18.70;99.90
75091;DHT22;63674;48.048;8.306;2023-07-29T15:25:12;18.70;99.90
75091;DHT22;63674;48.048;8.306;2023-07-29T15:27:41;18.80;99.90
75091;DHT22;63674;48.048;8.306;2023-07-29T15:30:10;18.90;99.90
75091;DHT22;63674;48.048;8.306;2023-07-29T15:32:40;19.00;99.90
75091;DHT22;63674;48.048;8.306;2023-07-29T15:35:09;19.00;99.90
75091;DHT22;63674;48.048;8.306;2023-07-29T15:37:38;19.10;99.90
75091;DHT22;63674;48.048;8.306;2023-07-29T15:40:09;19.10;99.90
75091;DHT22;63674;48.048;8.306;2023-07-29T15:42:38;19.00;99.90
75091;DHT22;63674;48.048;8.306;2023-07-29T15:45:08;18.90;99.90